sensor_id;sensor_type;location;lat;lon;timestamp;P1;durP1;ratioP1;P2;durP2;ratioP2
12196;SDS011;6161;43.014;25.840;2022-10-24T00:00:58;0.80;;;0.80;;
12196;SDS011;6161;43.014;25.840;2022-10-24T00:03:24;0.97;;;0.77;;
12196;SDS011;6161;43.014;25.840;2022-10-24T00:05:49;0.60;;;0.60;;
12196;SDS011;6161;43.014;25.840;2022-10-24T00:08:15;0.97;;;0.90;;
12196;SDS011;6161;43.014;25.840;2022-10-24T00:10:42;1.10;;;1.00;;
12196;SDS011;6161;43.014;25.840;2022-10-24T00:13:08;1.60;;;1.27;;
12196;SDS011;6161;43.014;25.840;2022-10-24T00:15:33;1.17;;;1.07;;
12196;SDS011;6161;43.014;25.840;2022-10-24T00:17:58;1.03;;;1.00;;
12196;SDS011;6161;43.014;25.840;2022-10-24T00:20:23;0.80;;;0.80;;
12196;SDS011;6161;43.014;25.840;2022-10-24T00:22:49;0.97;;;0.90;;
12196;SDS011;6161;43.014;25.840;2022-10-24T00:25:14;1.10;;;1.10;;
12196;SDS011;6161;43.014;25.840;2022-10-24T00:27:40;2.17;;;1.20;;
12196;SDS011;6161;43.014;25.840;2022-10-24T00:30:05;0.60;;;0.60;;
12196;SDS011;6161;43.014;25.840;2022-10-24T00:32:31;1.00;;;0.90;;
12196;SDS011;6161;43.014;25.840;2022-10-24T00:34:56;0.60;;;0.60;;
12196;SDS011;6161;43.014;25.840;2022-10-24T00:37:22;0.77;;;0.77;;
12196;SDS011;6161;43.014;25.840;2022-10-24T00:39:47;0.80;;;0.70;;
12196;SDS011;6161;43.014;25.840;2022-10-24T00:42:12;1.07;;;0.77;;
12196;SDS011;6161;43.014;25.840;2022-10-24T00:44:38;1.17;;;0.97;;
12196;SDS011;6161;43.014;25.840;2022-10-24T00:47:06;0.83;;;0.83;;
12196;SDS011;6161;43.014;25.840;2022-10-24T00:52:09;0.73;;;0.73;;
12196;SDS011;6161;43.014;25.840;2022-10-24T00:54:35;0.90;;;0.90;;
12196;SDS011;6161;43.014;25.840;2022-10-24T00:57:37;0.80;;;0.80;;
12196;SDS011;6161;43.014;25.840;2022-10-24T00:59:56;0.57;;;0.57;;
12196;SDS011;6161;43.014;25.840;2022-10-24T01:02:22;0.83;;;0.83;;
12196;SDS011;6161;43.014;25.840;2022-10-24T01:04:47;0.83;;;0.83;;
12196;SDS011;6161;43.014;25.840;2022-10-24T01:10:10;0.80;;;0.80;;
12196;SDS011;6161;43.014;25.840;2022-10-24T01:20:42;1.23;;;0.73;;
12196;SDS011;6161;43.014;25.840;2022-10-24T01:26:06;1.50;;;1.00;;
12196;SDS011;6161;43.014;25.840;2022-10-24T01:31:10;0.83;;;0.63;;
12196;SDS011;6161;43.014;25.840;2022-10-24T01:33:37;1.90;;;0.90;;
12196;SDS011;6161;43.014;25.840;2022-10-24T01:36:08;0.73;;;0.70;;
12196;SDS011;6161;43.014;25.840;2022-10-24T01:38:37;1.07;;;0.97;;
12196;SDS011;6161;43.014;25.840;2022-10-24T01:41:10;0.67;;;0.67;;
12196;SDS011;6161;43.014;25.840;2022-10-24T01:43:51;1.03;;;0.93;;
12196;SDS011;6161;43.014;25.840;2022-10-24T01:46:18;0.53;;;0.53;;
12196;SDS011;6161;43.014;25.840;2022-10-24T01:48:46;1.30;;;0.70;;
12196;SDS011;6161;43.014;25.840;2022-10-24T01:51:12;0.80;;;0.80;;
12196;SDS011;6161;43.014;25.840;2022-10-24T01:53:38;0.70;;;0.70;;
12196;SDS011;6161;43.014;25.840;2022-10-24T01:56:07;0.97;;;0.97;;
12196;SDS011;6161;43.014;25.840;2022-10-24T01:58:32;6.40;;;0.80;;
12196;SDS011;6161;43.014;25.840;2022-10-24T02:00:59;0.83;;;0.83;;
12196;SDS011;6161;43.014;25.840;2022-10-24T02:03:30;0.80;;;0.80;;
12196;SDS011;6161;43.014;25.840;2022-10-24T02:06:07;0.60;;;0.60;;
12196;SDS011;6161;43.014;25.840;2022-10-24T02:08:34;1.33;;;0.90;;
12196;SDS011;6161;43.014;25.840;2022-10-24T02:11:03;0.70;;;0.70;;
12196;SDS011;6161;43.014;25.840;2022-10-24T02:15:59;1.17;;;0.93;;
12196;SDS011;6161;43.014;25.840;2022-10-24T02:18:25;0.80;;;0.80;;
12196;SDS011;6161;43.014;25.840;2022-10-24T02:23:19;0.67;;;0.67;;
12196;SDS011;6161;43.014;25.840;2022-10-24T02:25:45;0.60;;;0.60;;
12196;SDS011;6161;43.014;25.840;2022-10-24T02:28:15;0.50;;;0.50;;
12196;SDS011;6161;43.014;25.840;2022-10-24T02:30:55;0.70;;;0.70;;
12196;SDS011;6161;43.014;25.840;2022-10-24T02:33:22;0.97;;;0.60;;
12196;SDS011;6161;43.014;25.840;2022-10-24T02:35:49;1.07;;;0.97;;
12196;SDS011;6161;43.014;25.840;2022-10-24T02:38:29;0.70;;;0.70;;
12196;SDS011;6161;43.014;25.840;2022-10-24T02:40:56;0.60;;;0.60;;
12196;SDS011;6161;43.014;25.840;2022-10-24T02:43:22;0.87;;;0.87;;
12196;SDS011;6161;43.014;25.840;2022-10-24T02:45:51;0.80;;;0.80;;
12196;SDS011;6161;43.014;25.840;2022-10-24T02:48:20;0.83;;;0.83;;
12196;SDS011;6161;43.014;25.840;2022-10-24T02:50:45;0.67;;;0.67;;
12196;SDS011;6161;43.014;25.840;2022-10-24T02:53:14;0.70;;;0.70;;
12196;SDS011;6161;43.014;25.840;2022-10-24T02:55:40;0.87;;;0.87;;
12196;SDS011;6161;43.014;25.840;2022-10-24T02:58:05;3.70;;;0.70;;
12196;SDS011;6161;43.014;25.840;2022-10-24T03:00:30;0.87;;;0.77;;
12196;SDS011;6161;43.014;25.840;2022-10-24T03:02:56;1.10;;;0.90;;
12196;SDS011;6161;43.014;25.840;2022-10-24T03:05:21;1.17;;;0.80;;
12196;SDS011;6161;43.014;25.840;2022-10-24T03:07:46;0.83;;;0.80;;
12196;SDS011;6161;43.014;25.840;2022-10-24T03:10:12;3.13;;;0.70;;
12196;SDS011;6161;43.014;25.840;2022-10-24T03:12:37;0.90;;;0.90;;
12196;SDS011;6161;43.014;25.840;2022-10-24T03:15:03;0.73;;;0.73;;
12196;SDS011;6161;43.014;25.840;2022-10-24T03:17:28;0.70;;;0.70;;
12196;SDS011;6161;43.014;25.840;2022-10-24T03:19:53;1.53;;;0.70;;
12196;SDS011;6161;43.014;25.840;2022-10-24T03:22:19;0.70;;;0.70;;
12196;SDS011;6161;43.014;25.840;2022-10-24T03:24:44;0.93;;;0.80;;
12196;SDS011;6161;43.014;25.840;2022-10-24T03:27:09;1.13;;;0.77;;
12196;SDS011;6161;43.014;25.840;2022-10-24T03:29:35;0.50;;;0.47;;
12196;SDS011;6161;43.014;25.840;2022-10-24T03:32:00;3.07;;;0.90;;
12196;SDS011;6161;43.014;25.840;2022-10-24T03:34:25;1.07;;;0.90;;
12196;SDS011;6161;43.014;25.840;2022-10-24T03:36:51;0.73;;;0.70;;
12196;SDS011;6161;43.014;25.840;2022-10-24T03:39:16;0.70;;;0.70;;
12196;SDS011;6161;43.014;25.840;2022-10-24T03:41:41;1.30;;;0.67;;
12196;SDS011;6161;43.014;25.840;2022-10-24T03:44:07;0.97;;;0.63;;
12196;SDS011;6161;43.014;25.840;2022-10-24T03:46:32;1.20;;;0.70;;
12196;SDS011;6161;43.014;25.840;2022-10-24T03:48:58;2.20;;;0.60;;
12196;SDS011;6161;43.014;25.840;2022-10-24T03:51:23;1.27;;;0.80;;
12196;SDS011;6161;43.014;25.840;2022-10-24T03:53:48;0.83;;;0.80;;
12196;SDS011;6161;43.014;25.840;2022-10-24T03:56:13;1.00;;;1.00;;
12196;SDS011;6161;43.014;25.840;2022-10-24T03:58:39;0.60;;;0.60;;
12196;SDS011;6161;43.014;25.840;2022-10-24T04:01:04;0.77;;;0.70;;
12196;SDS011;6161;43.014;25.840;2022-10-24T04:03:29;0.83;;;0.70;;
12196;SDS011;6161;43.014;25.840;2022-10-24T04:05:55;0.60;;;0.60;;
12196;SDS011;6161;43.014;25.840;2022-10-24T04:08:20;0.50;;;0.50;;
12196;SDS011;6161;43.014;25.840;2022-10-24T04:10:45;0.83;;;0.77;;
12196;SDS011;6161;43.014;25.840;2022-10-24T04:13:11;0.73;;;0.73;;
12196;SDS011;6161;43.014;25.840;2022-10-24T04:15:36;1.03;;;1.00;;
12196;SDS011;6161;43.014;25.840;2022-10-24T04:18:02;1.13;;;0.70;;
12196;SDS011;6161;43.014;25.840;2022-10-24T04:20:27;1.30;;;1.00;;
12196;SDS011;6161;43.014;25.840;2022-10-24T04:22:53;0.73;;;0.73;;
12196;SDS011;6161;43.014;25.840;2022-10-24T04:25:18;0.43;;;0.43;;
12196;SDS011;6161;43.014;25.840;2022-10-24T04:27:44;0.90;;;0.63;;
12196;SDS011;6161;43.014;25.840;2022-10-24T04:30:10;0.73;;;0.73;;
12196;SDS011;6161;43.014;25.840;2022-10-24T04:32:36;1.17;;;0.90;;
12196;SDS011;6161;43.014;25.840;2022-10-24T04:35:01;0.80;;;0.80;;
12196;SDS011;6161;43.014;25.840;2022-10-24T04:37:27;1.00;;;0.90;;
12196;SDS011;6161;43.014;25.840;2022-10-24T04:39:52;1.23;;;0.97;;
12196;SDS011;6161;43.014;25.840;2022-10-24T04:42:19;1.17;;;0.90;;
12196;SDS011;6161;43.014;25.840;2022-10-24T04:44:44;0.50;;;0.50;;
12196;SDS011;6161;43.014;25.840;2022-10-24T04:47:09;0.80;;;0.80;;
12196;SDS011;6161;43.014;25.840;2022-10-24T04:49:35;0.73;;;0.73;;
12196;SDS011;6161;43.014;25.840;2022-10-24T04:52:00;0.90;;;0.90;;
12196;SDS011;6161;43.014;25.840;2022-10-24T04:54:25;0.80;;;0.80;;
12196;SDS011;6161;43.014;25.840;2022-10-24T04:56:51;0.80;;;0.80;;
12196;SDS011;6161;43.014;25.840;2022-10-24T04:59:16;0.73;;;0.73;;
12196;SDS011;6161;43.014;25.840;2022-10-24T05:01:41;0.80;;;0.70;;
12196;SDS011;6161;43.014;25.840;2022-10-24T05:04:06;1.00;;;0.80;;
12196;SDS011;6161;43.014;25.840;2022-10-24T05:06:32;0.60;;;0.60;;
12196;SDS011;6161;43.014;25.840;2022-10-24T05:08:57;0.97;;;0.87;;
12196;SDS011;6161;43.014;25.840;2022-10-24T05:11:23;0.90;;;0.80;;
12196;SDS011;6161;43.014;25.840;2022-10-24T05:13:48;0.83;;;0.77;;
12196;SDS011;6161;43.014;25.840;2022-10-24T05:16:13;1.00;;;0.60;;
12196;SDS011;6161;43.014;25.840;2022-10-24T05:18:39;0.70;;;0.70;;
12196;SDS011;6161;43.014;25.840;2022-10-24T05:21:04;0.93;;;0.77;;
12196;SDS011;6161;43.014;25.840;2022-10-24T05:23:29;1.10;;;1.00;;
12196;SDS011;6161;43.014;25.840;2022-10-24T05:25:55;1.23;;;1.13;;
12196;SDS011;6161;43.014;25.840;2022-10-24T05:28:20;1.53;;;1.43;;
12196;SDS011;6161;43.014;25.840;2022-10-24T05:30:45;1.17;;;1.07;;
12196;SDS011;6161;43.014;25.840;2022-10-24T05:33:11;3.87;;;1.60;;
12196;SDS011;6161;43.014;25.840;2022-10-24T05:35:36;1.80;;;1.57;;
12196;SDS011;6161;43.014;25.840;2022-10-24T05:38:02;1.63;;;0.90;;
12196;SDS011;6161;43.014;25.840;2022-10-24T05:40:27;2.27;;;1.23;;
12196;SDS011;6161;43.014;25.840;2022-10-24T05:42:52;1.43;;;1.33;;
12196;SDS011;6161;43.014;25.840;2022-10-24T05:45:18;2.53;;;1.30;;
12196;SDS011;6161;43.014;25.840;2022-10-24T05:47:43;0.70;;;0.70;;
12196;SDS011;6161;43.014;25.840;2022-10-24T05:50:09;2.50;;;1.20;;
12196;SDS011;6161;43.014;25.840;2022-10-24T05:52:34;1.80;;;1.23;;
12196;SDS011;6161;43.014;25.840;2022-10-24T05:55:01;1.83;;;0.97;;
12196;SDS011;6161;43.014;25.840;2022-10-24T05:57:27;2.33;;;1.33;;
12196;SDS011;6161;43.014;25.840;2022-10-24T05:59:53;1.10;;;0.97;;
12196;SDS011;6161;43.014;25.840;2022-10-24T06:02:19;1.63;;;0.77;;
12196;SDS011;6161;43.014;25.840;2022-10-24T06:04:44;1.27;;;0.87;;
12196;SDS011;6161;43.014;25.840;2022-10-24T06:07:10;1.77;;;1.00;;
12196;SDS011;6161;43.014;25.840;2022-10-24T06:09:35;1.07;;;0.97;;
12196;SDS011;6161;43.014;25.840;2022-10-24T06:12:00;1.30;;;0.90;;
12196;SDS011;6161;43.014;25.840;2022-10-24T06:14:26;1.20;;;1.13;;
12196;SDS011;6161;43.014;25.840;2022-10-24T06:16:51;1.20;;;1.10;;
12196;SDS011;6161;43.014;25.840;2022-10-24T06:19:16;0.97;;;0.87;;
12196;SDS011;6161;43.014;25.840;2022-10-24T06:21:43;0.70;;;0.70;;
12196;SDS011;6161;43.014;25.840;2022-10-24T06:24:08;0.80;;;0.80;;
12196;SDS011;6161;43.014;25.840;2022-10-24T06:26:33;1.00;;;0.90;;
12196;SDS011;6161;43.014;25.840;2022-10-24T06:28:58;0.87;;;0.87;;
12196;SDS011;6161;43.014;25.840;2022-10-24T06:31:24;0.70;;;0.70;;
12196;SDS011;6161;43.014;25.840;2022-10-24T06:33:50;0.83;;;0.83;;
12196;SDS011;6161;43.014;25.840;2022-10-24T06:36:15;1.23;;;0.97;;
12196;SDS011;6161;43.014;25.840;2022-10-24T06:38:41;1.17;;;0.70;;
12196;SDS011;6161;43.014;25.840;2022-10-24T06:41:10;1.03;;;0.90;;
12196;SDS011;6161;43.014;25.840;2022-10-24T06:43:37;1.73;;;1.13;;
12196;SDS011;6161;43.014;25.840;2022-10-24T06:46:07;3.83;;;1.23;;
12196;SDS011;6161;43.014;25.840;2022-10-24T06:48:34;0.67;;;0.67;;
12196;SDS011;6161;43.014;25.840;2022-10-24T06:50:59;1.00;;;0.90;;
12196;SDS011;6161;43.014;25.840;2022-10-24T06:53:24;0.80;;;0.80;;
12196;SDS011;6161;43.014;25.840;2022-10-24T06:55:50;1.00;;;1.00;;
12196;SDS011;6161;43.014;25.840;2022-10-24T06:58:15;0.97;;;0.97;;
12196;SDS011;6161;43.014;25.840;2022-10-24T07:00:40;0.93;;;0.90;;
12196;SDS011;6161;43.014;25.840;2022-10-24T07:03:06;2.53;;;0.97;;
12196;SDS011;6161;43.014;25.840;2022-10-24T07:05:31;2.20;;;0.97;;
12196;SDS011;6161;43.014;25.840;2022-10-24T07:07:56;1.33;;;0.90;;
12196;SDS011;6161;43.014;25.840;2022-10-24T07:10:21;1.00;;;0.90;;
12196;SDS011;6161;43.014;25.840;2022-10-24T07:12:47;3.07;;;0.73;;
12196;SDS011;6161;43.014;25.840;2022-10-24T07:15:12;0.73;;;0.73;;
12196;SDS011;6161;43.014;25.840;2022-10-24T07:17:41;0.80;;;0.80;;
12196;SDS011;6161;43.014;25.840;2022-10-24T07:20:07;0.70;;;0.70;;
12196;SDS011;6161;43.014;25.840;2022-10-24T07:22:34;0.80;;;0.80;;
12196;SDS011;6161;43.014;25.840;2022-10-24T07:24:59;1.13;;;0.80;;
12196;SDS011;6161;43.014;25.840;2022-10-24T07:27:25;0.80;;;0.80;;
12196;SDS011;6161;43.014;25.840;2022-10-24T07:29:50;2.30;;;1.23;;
12196;SDS011;6161;43.014;25.840;2022-10-24T07:32:16;3.13;;;1.00;;
12196;SDS011;6161;43.014;25.840;2022-10-24T07:34:42;0.70;;;0.70;;
12196;SDS011;6161;43.014;25.840;2022-10-24T07:37:07;0.57;;;0.57;;
12196;SDS011;6161;43.014;25.840;2022-10-24T07:39:32;0.43;;;0.43;;
12196;SDS011;6161;43.014;25.840;2022-10-24T07:41:58;1.83;;;1.10;;
12196;SDS011;6161;43.014;25.840;2022-10-24T07:44:23;0.83;;;0.83;;
12196;SDS011;6161;43.014;25.840;2022-10-24T07:46:49;0.83;;;0.83;;
12196;SDS011;6161;43.014;25.840;2022-10-24T07:49:14;0.77;;;0.77;;
12196;SDS011;6161;43.014;25.840;2022-10-24T07:51:40;1.13;;;1.07;;
12196;SDS011;6161;43.014;25.840;2022-10-24T07:54:05;2.43;;;1.20;;
12196;SDS011;6161;43.014;25.840;2022-10-24T07:56:31;1.20;;;1.10;;
12196;SDS011;6161;43.014;25.840;2022-10-24T07:58:56;1.50;;;1.40;;
12196;SDS011;6161;43.014;25.840;2022-10-24T08:01:23;4.17;;;1.10;;
12196;SDS011;6161;43.014;25.840;2022-10-24T08:03:49;5.67;;;1.40;;
12196;SDS011;6161;43.014;25.840;2022-10-24T08:06:16;0.60;;;0.60;;
12196;SDS011;6161;43.014;25.840;2022-10-24T08:08:41;4.20;;;1.27;;
12196;SDS011;6161;43.014;25.840;2022-10-24T08:11:09;1.03;;;0.93;;
12196;SDS011;6161;43.014;25.840;2022-10-24T08:13:45;1.40;;;0.90;;
12196;SDS011;6161;43.014;25.840;2022-10-24T08:16:11;1.43;;;1.30;;
12196;SDS011;6161;43.014;25.840;2022-10-24T08:18:37;1.00;;;0.97;;
12196;SDS011;6161;43.014;25.840;2022-10-24T08:21:04;0.63;;;0.63;;
12196;SDS011;6161;43.014;25.840;2022-10-24T08:23:29;0.93;;;0.90;;
12196;SDS011;6161;43.014;25.840;2022-10-24T08:25:56;0.63;;;0.63;;
12196;SDS011;6161;43.014;25.840;2022-10-24T08:28:22;1.23;;;1.10;;
12196;SDS011;6161;43.014;25.840;2022-10-24T08:31:01;1.03;;;1.03;;
12196;SDS011;6161;43.014;25.840;2022-10-24T08:33:28;2.17;;;1.23;;
12196;SDS011;6161;43.014;25.840;2022-10-24T08:35:55;1.13;;;1.00;;
12196;SDS011;6161;43.014;25.840;2022-10-24T08:38:21;1.23;;;1.07;;
12196;SDS011;6161;43.014;25.840;2022-10-24T08:40:46;2.30;;;1.47;;
12196;SDS011;6161;43.014;25.840;2022-10-24T08:43:13;2.10;;;1.60;;
12196;SDS011;6161;43.014;25.840;2022-10-24T08:48:33;1.50;;;1.17;;
12196;SDS011;6161;43.014;25.840;2022-10-24T08:51:23;1.60;;;1.10;;
12196;SDS011;6161;43.014;25.840;2022-10-24T08:53:51;1.20;;;1.00;;
12196;SDS011;6161;43.014;25.840;2022-10-24T08:56:17;0.87;;;0.87;;
12196;SDS011;6161;43.014;25.840;2022-10-24T08:58:43;0.93;;;0.87;;
12196;SDS011;6161;43.014;25.840;2022-10-24T09:01:16;0.87;;;0.87;;
12196;SDS011;6161;43.014;25.840;2022-10-24T09:03:46;0.63;;;0.63;;
12196;SDS011;6161;43.014;25.840;2022-10-24T09:06:16;1.17;;;0.73;;
12196;SDS011;6161;43.014;25.840;2022-10-24T09:08:58;1.80;;;0.70;;
12196;SDS011;6161;43.014;25.840;2022-10-24T09:14:12;0.60;;;0.60;;
12196;SDS011;6161;43.014;25.840;2022-10-24T09:16:52;0.80;;;0.80;;
12196;SDS011;6161;43.014;25.840;2022-10-24T09:19:20;0.70;;;0.70;;
12196;SDS011;6161;43.014;25.840;2022-10-24T09:21:48;0.50;;;0.50;;
12196;SDS011;6161;43.014;25.840;2022-10-24T09:24:40;2.40;;;0.60;;
12196;SDS011;6161;43.014;25.840;2022-10-24T09:27:29;0.60;;;0.60;;
12196;SDS011;6161;43.014;25.840;2022-10-24T09:29:58;0.43;;;0.43;;
12196;SDS011;6161;43.014;25.840;2022-10-24T09:32:25;0.60;;;0.60;;
12196;SDS011;6161;43.014;25.840;2022-10-24T09:34:54;0.60;;;0.60;;
12196;SDS011;6161;43.014;25.840;2022-10-24T09:37:43;0.40;;;0.40;;
12196;SDS011;6161;43.014;25.840;2022-10-24T09:40:15;0.60;;;0.60;;
12196;SDS011;6161;43.014;25.840;2022-10-24T09:45:19;0.80;;;0.80;;
12196;SDS011;6161;43.014;25.840;2022-10-24T09:47:59;0.60;;;0.60;;
12196;SDS011;6161;43.014;25.840;2022-10-24T09:50:27;0.70;;;0.70;;
12196;SDS011;6161;43.014;25.840;2022-10-24T09:52:56;0.37;;;0.37;;
12196;SDS011;6161;43.014;25.840;2022-10-24T09:55:24;0.50;;;0.50;;
12196;SDS011;6161;43.014;25.840;2022-10-24T09:57:56;0.80;;;0.80;;
12196;SDS011;6161;43.014;25.840;2022-10-24T10:00:29;0.90;;;0.80;;
12196;SDS011;6161;43.014;25.840;2022-10-24T10:03:18;0.70;;;0.70;;
12196;SDS011;6161;43.014;25.840;2022-10-24T10:08:23;1.37;;;0.90;;
12196;SDS011;6161;43.014;25.840;2022-10-24T10:13:22;0.97;;;0.40;;
12196;SDS011;6161;43.014;25.840;2022-10-24T10:23:35;0.53;;;0.53;;
12196;SDS011;6161;43.014;25.840;2022-10-24T10:29:00;2.30;;;0.52;;
12196;SDS011;6161;43.014;25.840;2022-10-24T10:31:44;0.50;;;0.50;;
12196;SDS011;6161;43.014;25.840;2022-10-24T10:34:22;2.43;;;0.73;;
12196;SDS011;6161;43.014;25.840;2022-10-24T10:42:13;0.55;;;0.55;;
12196;SDS011;6161;43.014;25.840;2022-10-24T10:50:21;4.60;;;0.68;;
12196;SDS011;6161;43.014;25.840;2022-10-24T10:52:49;0.52;;;0.52;;
12196;SDS011;6161;43.014;25.840;2022-10-24T10:55:36;0.77;;;0.77;;
12196;SDS011;6161;43.014;25.840;2022-10-24T11:01:03;3.30;;;0.63;;
12196;SDS011;6161;43.014;25.840;2022-10-24T11:06:54;0.77;;;0.77;;
12196;SDS011;6161;43.014;25.840;2022-10-24T11:12:16;1.13;;;0.70;;
12196;SDS011;6161;43.014;25.840;2022-10-24T11:17:17;1.60;;;0.80;;
12196;SDS011;6161;43.014;25.840;2022-10-24T11:22:35;1.10;;;1.00;;
12196;SDS011;6161;43.014;25.840;2022-10-24T11:27:56;0.77;;;0.60;;
12196;SDS011;6161;43.014;25.840;2022-10-24T11:30:53;0.55;;;0.55;;
12196;SDS011;6161;43.014;25.840;2022-10-24T11:33:22;0.60;;;0.60;;
12196;SDS011;6161;43.014;25.840;2022-10-24T11:36:00;0.43;;;0.43;;
12196;SDS011;6161;43.014;25.840;2022-10-24T11:38:28;1.30;;;0.70;;
12196;SDS011;6161;43.014;25.840;2022-10-24T11:40:57;0.60;;;0.60;;
12196;SDS011;6161;43.014;25.840;2022-10-24T11:43:40;2.42;;;0.80;;
12196;SDS011;6161;43.014;25.840;2022-10-24T11:51:38;0.82;;;0.68;;
12196;SDS011;6161;43.014;25.840;2022-10-24T11:57:16;2.35;;;0.70;;
12196;SDS011;6161;43.014;25.840;2022-10-24T11:59:45;1.63;;;0.75;;
12196;SDS011;6161;43.014;25.840;2022-10-24T12:02:18;1.63;;;0.98;;
12196;SDS011;6161;43.014;25.840;2022-10-24T12:18:08;0.40;;;0.40;;
12196;SDS011;6161;43.014;25.840;2022-10-24T12:20:56;0.55;;;0.55;;
12196;SDS011;6161;43.014;25.840;2022-10-24T12:23:26;0.77;;;0.77;;
12196;SDS011;6161;43.014;25.840;2022-10-24T12:26:16;0.73;;;0.73;;
12196;SDS011;6161;43.014;25.840;2022-10-24T12:28:52;1.50;;;0.73;;
12196;SDS011;6161;43.014;25.840;2022-10-24T12:31:18;0.35;;;0.35;;
12196;SDS011;6161;43.014;25.840;2022-10-24T12:39:42;0.80;;;0.80;;
12196;SDS011;6161;43.014;25.840;2022-10-24T12:44:39;0.55;;;0.55;;
12196;SDS011;6161;43.014;25.840;2022-10-24T13:03:53;2.50;;;1.10;;
12196;SDS011;6161;43.014;25.840;2022-10-24T13:06:34;1.05;;;0.60;;
12196;SDS011;6161;43.014;25.840;2022-10-24T13:14:30;1.48;;;0.70;;
12196;SDS011;6161;43.014;25.840;2022-10-24T13:20:16;1.73;;;0.70;;
12196;SDS011;6161;43.014;25.840;2022-10-24T13:22:42;1.55;;;0.70;;
12196;SDS011;6161;43.014;25.840;2022-10-24T13:25:29;2.57;;;0.60;;
12196;SDS011;6161;43.014;25.840;2022-10-24T13:41:35;1.15;;;1.05;;
12196;SDS011;6161;43.014;25.840;2022-10-24T13:44:21;1.55;;;0.95;;
12196;SDS011;6161;43.014;25.840;2022-10-24T13:46:51;0.75;;;0.75;;
12196;SDS011;6161;43.014;25.840;2022-10-24T13:49:28;1.25;;;0.80;;
12196;SDS011;6161;43.014;25.840;2022-10-24T13:52:08;1.17;;;0.90;;
12196;SDS011;6161;43.014;25.840;2022-10-24T13:54:41;0.80;;;0.63;;
12196;SDS011;6161;43.014;25.840;2022-10-24T13:57:23;1.40;;;0.60;;
12196;SDS011;6161;43.014;25.840;2022-10-24T14:00:07;6.50;;;0.82;;
12196;SDS011;6161;43.014;25.840;2022-10-24T14:02:42;0.88;;;0.88;;
12196;SDS011;6161;43.014;25.840;2022-10-24T14:11:12;1.80;;;1.08;;
12196;SDS011;6161;43.014;25.840;2022-10-24T14:13:42;2.63;;;1.42;;
12196;SDS011;6161;43.014;25.840;2022-10-24T14:16:11;1.65;;;1.20;;
12196;SDS011;6161;43.014;25.840;2022-10-24T14:18:37;0.90;;;0.85;;
12196;SDS011;6161;43.014;25.840;2022-10-24T14:21:05;1.15;;;0.85;;
12196;SDS011;6161;43.014;25.840;2022-10-24T14:23:40;0.68;;;0.68;;
12196;SDS011;6161;43.014;25.840;2022-10-24T14:28:46;3.17;;;0.93;;
12196;SDS011;6161;43.014;25.840;2022-10-24T14:31:27;2.70;;;0.87;;
12196;SDS011;6161;43.014;25.840;2022-10-24T14:33:55;2.25;;;0.70;;
12196;SDS011;6161;43.014;25.840;2022-10-24T14:36:23;1.80;;;1.37;;
12196;SDS011;6161;43.014;25.840;2022-10-24T14:38:53;1.98;;;1.77;;
12196;SDS011;6161;43.014;25.840;2022-10-24T14:41:22;1.95;;;1.30;;
12196;SDS011;6161;43.014;25.840;2022-10-24T14:44:03;1.58;;;1.48;;
12196;SDS011;6161;43.014;25.840;2022-10-24T14:46:33;2.70;;;1.25;;
12196;SDS011;6161;43.014;25.840;2022-10-24T14:49:20;3.30;;;0.88;;
12196;SDS011;6161;43.014;25.840;2022-10-24T14:51:55;3.38;;;0.73;;
12196;SDS011;6161;43.014;25.840;2022-10-24T14:54:25;4.20;;;1.48;;
12196;SDS011;6161;43.014;25.840;2022-10-24T14:56:54;0.85;;;0.85;;
12196;SDS011;6161;43.014;25.840;2022-10-24T14:59:21;1.27;;;1.20;;
12196;SDS011;6161;43.014;25.840;2022-10-24T15:02:03;5.13;;;1.50;;
12196;SDS011;6161;43.014;25.840;2022-10-24T15:04:39;3.13;;;2.80;;
12196;SDS011;6161;43.014;25.840;2022-10-24T15:09:50;2.57;;;2.33;;
12196;SDS011;6161;43.014;25.840;2022-10-24T15:12:22;1.50;;;1.40;;
12196;SDS011;6161;43.014;25.840;2022-10-24T15:14:50;2.60;;;1.23;;
12196;SDS011;6161;43.014;25.840;2022-10-24T15:17:31;1.00;;;0.90;;
12196;SDS011;6161;43.014;25.840;2022-10-24T15:19:57;0.75;;;0.75;;
12196;SDS011;6161;43.014;25.840;2022-10-24T15:22:26;2.80;;;0.90;;
12196;SDS011;6161;43.014;25.840;2022-10-24T15:24:53;1.97;;;0.97;;
12196;SDS011;6161;43.014;25.840;2022-10-24T15:27:35;1.10;;;0.87;;
12196;SDS011;6161;43.014;25.840;2022-10-24T15:30:02;0.50;;;0.50;;
12196;SDS011;6161;43.014;25.840;2022-10-24T15:32:28;0.60;;;0.60;;
12196;SDS011;6161;43.014;25.840;2022-10-24T15:34:54;0.70;;;0.70;;
12196;SDS011;6161;43.014;25.840;2022-10-24T15:37:20;1.03;;;1.03;;
12196;SDS011;6161;43.014;25.840;2022-10-24T15:39:48;1.00;;;0.90;;
12196;SDS011;6161;43.014;25.840;2022-10-24T15:42:14;1.07;;;0.97;;
12196;SDS011;6161;43.014;25.840;2022-10-24T15:44:40;1.30;;;1.20;;
12196;SDS011;6161;43.014;25.840;2022-10-24T15:47:06;1.50;;;0.70;;
12196;SDS011;6161;43.014;25.840;2022-10-24T15:49:32;1.47;;;0.87;;
12196;SDS011;6161;43.014;25.840;2022-10-24T15:51:59;1.23;;;0.80;;
12196;SDS011;6161;43.014;25.840;2022-10-24T15:54:24;1.50;;;1.00;;
12196;SDS011;6161;43.014;25.840;2022-10-24T15:56:53;3.27;;;0.73;;
12196;SDS011;6161;43.014;25.840;2022-10-24T15:59:19;1.47;;;0.77;;
12196;SDS011;6161;43.014;25.840;2022-10-24T16:01:55;0.83;;;0.80;;
12196;SDS011;6161;43.014;25.840;2022-10-24T16:04:24;5.97;;;1.00;;
12196;SDS011;6161;43.014;25.840;2022-10-24T16:06:50;1.77;;;1.00;;
12196;SDS011;6161;43.014;25.840;2022-10-24T16:09:20;1.30;;;0.83;;
12196;SDS011;6161;43.014;25.840;2022-10-24T16:11:49;1.90;;;1.23;;
12196;SDS011;6161;43.014;25.840;2022-10-24T16:14:15;2.73;;;0.83;;
12196;SDS011;6161;43.014;25.840;2022-10-24T16:16:42;0.57;;;0.57;;
12196;SDS011;6161;43.014;25.840;2022-10-24T16:19:07;1.60;;;0.90;;
12196;SDS011;6161;43.014;25.840;2022-10-24T16:21:36;1.00;;;0.90;;
12196;SDS011;6161;43.014;25.840;2022-10-24T16:24:02;0.63;;;0.63;;
12196;SDS011;6161;43.014;25.840;2022-10-24T16:26:27;0.80;;;0.80;;
12196;SDS011;6161;43.014;25.840;2022-10-24T16:28:53;2.87;;;1.53;;
12196;SDS011;6161;43.014;25.840;2022-10-24T16:31:18;1.43;;;1.10;;
12196;SDS011;6161;43.014;25.840;2022-10-24T16:33:47;1.30;;;1.20;;
12196;SDS011;6161;43.014;25.840;2022-10-24T16:36:13;1.40;;;1.30;;
12196;SDS011;6161;43.014;25.840;2022-10-24T16:38:39;0.93;;;0.93;;
12196;SDS011;6161;43.014;25.840;2022-10-24T16:41:04;1.17;;;1.03;;
12196;SDS011;6161;43.014;25.840;2022-10-24T16:43:30;2.93;;;1.20;;
12196;SDS011;6161;43.014;25.840;2022-10-24T16:46:02;1.77;;;1.60;;
12196;SDS011;6161;43.014;25.840;2022-10-24T16:48:27;2.67;;;1.50;;
12196;SDS011;6161;43.014;25.840;2022-10-24T16:50:53;3.47;;;2.00;;
12196;SDS011;6161;43.014;25.840;2022-10-24T16:53:19;1.77;;;1.67;;
12196;SDS011;6161;43.014;25.840;2022-10-24T16:55:49;2.00;;;1.40;;
12196;SDS011;6161;43.014;25.840;2022-10-24T16:58:17;1.73;;;1.63;;
12196;SDS011;6161;43.014;25.840;2022-10-24T17:00:44;2.43;;;1.50;;
12196;SDS011;6161;43.014;25.840;2022-10-24T17:03:10;1.37;;;1.10;;
12196;SDS011;6161;43.014;25.840;2022-10-24T17:05:35;1.67;;;1.57;;
12196;SDS011;6161;43.014;25.840;2022-10-24T17:08:01;1.97;;;1.50;;
12196;SDS011;6161;43.014;25.840;2022-10-24T17:10:26;4.50;;;1.40;;
12196;SDS011;6161;43.014;25.840;2022-10-24T17:12:52;1.10;;;1.00;;
12196;SDS011;6161;43.014;25.840;2022-10-24T17:15:18;1.17;;;1.10;;
12196;SDS011;6161;43.014;25.840;2022-10-24T17:17:44;0.93;;;0.93;;
12196;SDS011;6161;43.014;25.840;2022-10-24T17:20:10;1.07;;;1.00;;
12196;SDS011;6161;43.014;25.840;2022-10-24T17:22:36;1.23;;;0.90;;
12196;SDS011;6161;43.014;25.840;2022-10-24T17:25:03;1.80;;;1.03;;
12196;SDS011;6161;43.014;25.840;2022-10-24T17:27:29;0.90;;;0.70;;
12196;SDS011;6161;43.014;25.840;2022-10-24T17:29:54;1.03;;;0.80;;
12196;SDS011;6161;43.014;25.840;2022-10-24T17:32:20;1.00;;;1.00;;